createdAt,value
2018-10-07T00:01:59.302Z,10.88
2018-10-07T00:04:27.306Z,10.75
2018-10-07T00:06:55.283Z,10.84
2018-10-07T00:09:23.242Z,10.83
2018-10-07T00:11:51.898Z,10.93
2018-10-07T00:14:19.930Z,10.98
2018-10-07T00:16:47.951Z,10.71
2018-10-07T00:19:16.918Z,10.71
2018-10-07T00:21:45.193Z,10.87
2018-10-07T00:24:13.163Z,10.80
2018-10-07T00:26:41.414Z,10.65
2018-10-07T00:29:09.367Z,10.38
2018-10-07T00:31:42.662Z,10.05
2018-10-07T00:34:10.679Z,10.16
2018-10-07T00:36:38.573Z,10.11
2018-10-07T00:39:09.885Z,10.07
2018-10-07T00:41:37.820Z,10.02
2018-10-07T00:44:05.957Z,10.00
2018-10-07T00:46:34.550Z,9.88
2018-10-07T00:49:02.734Z,9.81
2018-10-07T00:51:30.779Z,9.74
2018-10-07T00:53:58.758Z,9.67
2018-10-07T00:56:27.120Z,9.64
2018-10-07T00:58:55.145Z,9.61
2018-10-07T01:01:23.902Z,9.62
2018-10-07T01:03:52.231Z,9.62
2018-10-07T01:06:20.233Z,9.78
2018-10-07T01:08:48.264Z,9.56
2018-10-07T01:11:16.312Z,9.49
2018-10-07T01:13:44.368Z,9.44
2018-10-07T01:16:12.453Z,9.41
2018-10-07T01:18:40.497Z,9.41
2018-10-07T01:21:08.559Z,9.59
2018-10-07T01:23:36.605Z,9.73
2018-10-07T01:26:04.567Z,9.68
2018-10-07T01:28:32.534Z,9.40
2018-10-07T01:31:00.558Z,9.36
2018-10-07T01:33:29.398Z,9.31
2018-10-07T01:35:57.486Z,9.32
2018-10-07T01:38:26.019Z,9.20
2018-10-07T01:40:53.947Z,9.08
2018-10-07T01:43:21.925Z,9.14
2018-10-07T01:45:50.029Z,9.31
2018-10-07T01:48:18.026Z,9.43
2018-10-07T01:50:46.015Z,9.61
2018-10-07T01:53:14.048Z,9.69
2018-10-07T01:55:42.062Z,9.47
2018-10-07T01:58:09.952Z,9.32
2018-10-07T02:00:38.947Z,9.39
2018-10-07T02:03:07.103Z,9.06
2018-10-07T02:05:35.539Z,8.86
2018-10-07T02:08:03.663Z,8.80
2018-10-07T02:10:31.750Z,8.85
2018-10-07T02:12:59.626Z,8.90
2018-10-07T02:15:28.542Z,8.73
2018-10-07T02:17:56.564Z,8.72
2018-10-07T02:20:24.607Z,8.86
2018-10-07T02:22:52.637Z,8.90
2018-10-07T02:25:20.762Z,8.84
2018-10-07T02:27:48.954Z,8.89
2018-10-07T02:30:17.105Z,8.81
2018-10-07T02:32:45.058Z,8.73
2018-10-07T02:35:13.663Z,8.70
2018-10-07T02:37:41.899Z,8.66
2018-10-07T02:40:09.867Z,8.62
2018-10-07T02:42:37.922Z,8.61
2018-10-07T02:45:06.158Z,8.59
2018-10-07T02:47:34.094Z,8.71
2018-10-07T02:50:10.212Z,8.69
2018-10-07T02:52:43.738Z,8.81
2018-10-07T02:55:11.850Z,8.83
2018-10-07T02:57:40.020Z,8.76
2018-10-07T03:00:08.018Z,8.81
2018-10-07T03:02:35.994Z,8.84
2018-10-07T03:05:04.026Z,8.77
2018-10-07T03:07:32.094Z,8.78
2018-10-07T03:09:59.963Z,8.73
2018-10-07T03:12:27.886Z,8.74
2018-10-07T03:14:55.810Z,8.69
2018-10-07T03:17:23.843Z,8.67
2018-10-07T03:19:52.887Z,8.64
2018-10-07T03:22:20.928Z,8.55
2018-10-07T03:24:49.003Z,8.55
2018-10-07T03:27:17.195Z,8.52
2018-10-07T03:29:45.569Z,8.51
2018-10-07T03:32:13.529Z,8.48
2018-10-07T03:34:41.551Z,8.43
2018-10-07T03:37:09.450Z,8.39
2018-10-07T03:39:37.631Z,8.33
2018-10-07T03:42:05.553Z,8.32
2018-10-07T03:44:33.514Z,8.34
2018-10-07T03:47:01.898Z,8.32
2018-10-07T03:49:29.852Z,8.33
2018-10-07T03:51:57.784Z,8.36
2018-10-07T03:54:26.439Z,8.25
2018-10-07T03:56:54.606Z,8.24
2018-10-07T03:59:22.842Z,8.14
2018-10-07T04:01:51.948Z,8.06
2018-10-07T04:04:20.050Z,8.15
2018-10-07T04:06:48.428Z,8.12
2018-10-07T04:09:16.386Z,8.21
2018-10-07T04:11:44.333Z,8.27
2018-10-07T04:14:13.062Z,8.34
2018-10-07T04:16:41.047Z,8.32
2018-10-07T04:19:09.932Z,8.26
2018-10-07T04:25:28.295Z,8.27
2018-10-07T04:27:56.379Z,8.59
2018-10-07T04:30:24.324Z,8.75
2018-10-07T04:32:52.435Z,8.84
2018-10-07T04:35:20.392Z,8.71
2018-10-07T04:37:48.419Z,8.62
2018-10-07T04:40:16.455Z,8.66
2018-10-07T04:42:44.553Z,8.41
2018-10-07T04:45:12.573Z,8.43
2018-10-07T04:47:40.744Z,8.29
2018-10-07T04:50:08.929Z,8.34
2018-10-07T04:52:37.133Z,8.62
2018-10-07T04:55:05.361Z,9.08
2018-10-07T04:57:33.334Z,9.30
2018-10-07T05:00:01.246Z,9.07
2018-10-07T05:02:29.391Z,8.68
2018-10-07T05:04:57.650Z,8.99
2018-10-07T05:07:25.697Z,9.13
2018-10-07T05:10:58.522Z,9.53
2018-10-07T05:13:30.535Z,10.06
2018-10-07T05:16:01.098Z,10.31
2018-10-07T05:18:29.191Z,10.34
2018-10-07T05:20:57.230Z,10.42
2018-10-07T05:23:25.150Z,10.36
2018-10-07T05:25:53.153Z,10.34
2018-10-07T05:28:21.336Z,10.51
2018-10-07T05:30:49.370Z,10.43
2018-10-07T05:33:17.338Z,10.54
2018-10-07T05:35:45.281Z,10.17
2018-10-07T05:38:17.200Z,9.22
2018-10-07T05:40:45.156Z,8.69
2018-10-07T05:43:13.186Z,8.54
2018-10-07T05:45:41.138Z,8.48
2018-10-07T05:48:09.958Z,8.47
2018-10-07T05:50:38.181Z,8.61
2018-10-07T05:53:07.362Z,8.63
2018-10-07T05:55:36.531Z,8.85
2018-10-07T05:58:05.381Z,8.84
2018-10-07T06:00:35.536Z,8.70
2018-10-07T06:03:13.009Z,8.82
2018-10-07T06:05:41.274Z,9.02
2018-10-07T06:08:09.900Z,9.25
2018-10-07T06:10:38.570Z,9.29
2018-10-07T06:13:06.711Z,9.63
2018-10-07T06:15:37.103Z,9.64
2018-10-07T06:18:05.380Z,9.48
2018-10-07T06:20:34.805Z,9.40
2018-10-07T06:23:02.875Z,9.62
2018-10-07T06:25:31.310Z,9.41
2018-10-07T06:27:59.346Z,9.84
2018-10-07T06:30:28.007Z,9.95
2018-10-07T06:32:55.960Z,9.86
2018-10-07T06:35:24.663Z,10.24
2018-10-07T06:37:53.289Z,10.05
2018-10-07T06:40:21.654Z,10.34
2018-10-07T06:42:49.810Z,10.42
2018-10-07T06:45:17.899Z,10.64
2018-10-07T06:47:46.051Z,10.83
2018-10-07T06:50:14.123Z,10.46
2018-10-07T06:52:42.417Z,10.51
2018-10-07T06:55:10.404Z,10.65
2018-10-07T06:57:38.442Z,10.94
2018-10-07T07:00:07.403Z,10.93
2018-10-07T07:02:35.482Z,11.42
2018-10-07T07:05:03.657Z,11.33
2018-10-07T07:07:31.685Z,11.38
2018-10-07T07:09:59.731Z,11.07
2018-10-07T07:12:27.694Z,11.23
2018-10-07T07:14:56.154Z,11.25
2018-10-07T07:17:24.142Z,11.24
2018-10-07T07:19:52.244Z,11.06
2018-10-07T07:22:20.247Z,11.35
2018-10-07T07:24:48.251Z,11.71
2018-10-07T07:30:37.312Z,12.79
2018-10-07T07:33:05.397Z,13.38
2018-10-07T07:35:33.608Z,13.48
2018-10-07T07:38:01.614Z,12.93
2018-10-07T07:40:30.151Z,12.53
2018-10-07T07:42:58.294Z,12.89
2018-10-07T07:45:26.346Z,13.03
2018-10-07T07:47:54.459Z,13.39
2018-10-07T07:50:22.438Z,12.75
2018-10-07T07:52:50.563Z,12.90
2018-10-07T07:55:18.606Z,13.00
2018-10-07T07:57:46.587Z,12.95
2018-10-07T08:00:29.380Z,13.21
2018-10-07T08:02:58.484Z,13.78
2018-10-07T08:05:26.448Z,14.26
2018-10-07T08:07:54.383Z,14.37
2018-10-07T08:10:22.386Z,13.57
2018-10-07T08:12:50.482Z,13.88
2018-10-07T08:15:18.559Z,13.52
2018-10-07T08:17:46.564Z,13.67
2018-10-07T08:20:14.611Z,14.10
2018-10-07T08:22:42.658Z,14.42
2018-10-07T08:25:10.649Z,14.41
2018-10-07T08:27:39.043Z,13.98
2018-10-07T08:30:07.376Z,14.16
2018-10-07T08:32:35.477Z,14.90
2018-10-07T08:35:03.656Z,15.40
2018-10-07T08:37:31.653Z,15.04
2018-10-07T08:39:59.760Z,15.00
2018-10-07T08:42:27.837Z,15.01
2018-10-07T08:44:55.961Z,14.72
2018-10-07T08:47:24.156Z,14.32
2018-10-07T08:49:53.233Z,14.37
2018-10-07T08:52:21.151Z,15.31
2018-10-07T08:54:49.311Z,16.05
2018-10-07T08:57:17.317Z,16.24
2018-10-07T08:59:45.246Z,15.48
2018-10-07T09:02:13.395Z,15.81
2018-10-07T09:04:41.418Z,16.86
2018-10-07T09:07:09.466Z,17.35
2018-10-07T09:09:37.450Z,17.26
2018-10-07T09:12:05.680Z,16.61
2018-10-07T09:14:33.854Z,16.02
2018-10-07T09:17:01.877Z,16.16
2018-10-07T09:19:29.830Z,16.74
2018-10-07T09:21:57.924Z,16.92
2018-10-07T09:24:25.834Z,17.26
2018-10-07T09:26:53.826Z,16.45
2018-10-07T09:29:22.133Z,16.79
2018-10-07T09:31:50.312Z,17.25
2018-10-07T09:34:18.406Z,17.70
2018-10-07T09:36:46.439Z,17.60
2018-10-07T09:39:14.621Z,17.50
2018-10-07T09:41:42.623Z,16.63
2018-10-07T09:44:10.579Z,17.10
2018-10-07T09:46:40.138Z,18.09
2018-10-07T09:49:08.401Z,18.45
2018-10-07T09:51:38.559Z,18.43
2018-10-07T09:54:06.616Z,17.68
2018-10-07T09:56:34.678Z,18.56
2018-10-07T09:59:02.727Z,19.38
2018-10-07T10:01:30.977Z,19.55
2018-10-07T10:04:05.397Z,19.47
2018-10-07T10:06:33.423Z,19.63
2018-10-07T10:09:01.303Z,19.98
2018-10-07T10:11:30.179Z,19.71
2018-10-07T10:13:58.213Z,18.72
2018-10-07T10:16:33.453Z,18.94
2018-10-07T10:19:37.990Z,19.58
2018-10-07T10:24:18.507Z,20.00
2018-10-07T10:27:58.822Z,19.40
2018-10-07T10:30:36.654Z,19.45
2018-10-07T10:33:12.556Z,20.38
2018-10-07T10:36:54.871Z,20.79
2018-10-07T10:39:33.871Z,21.08
2018-10-07T10:42:14.608Z,21.23
2018-10-07T10:44:46.871Z,20.73
2018-10-07T10:47:25.678Z,20.47
2018-10-07T10:49:58.230Z,20.49
2018-10-07T10:52:31.226Z,20.74
2018-10-07T10:56:10.156Z,20.76
2018-10-07T10:59:48.518Z,21.20
2018-10-07T11:04:34.167Z,21.48
2018-10-07T11:07:11.480Z,21.27
2018-10-07T11:09:52.510Z,20.74
2018-10-07T11:14:35.520Z,20.89
2018-10-07T11:17:13.210Z,21.11
2018-10-07T11:19:49.352Z,21.38
2018-10-07T11:24:27.238Z,21.68
2018-10-07T11:27:01.051Z,22.39
2018-10-07T11:31:42.208Z,21.71
2018-10-07T11:34:23.768Z,21.24
2018-10-07T11:39:05.393Z,20.92
2018-10-07T11:41:44.624Z,21.21
2018-10-07T11:44:21.163Z,20.94
2018-10-07T11:47:01.904Z,21.14
2018-10-07T11:49:36.607Z,21.35
2018-10-07T11:53:16.524Z,21.24
2018-10-07T11:55:44.706Z,21.63
2018-10-07T11:58:12.815Z,21.69
2018-10-07T12:00:40.908Z,22.02
2018-10-07T12:03:09.524Z,21.90
2018-10-07T12:05:37.705Z,22.12
2018-10-07T12:08:05.889Z,21.86
2018-10-07T12:10:34.400Z,22.10
2018-10-07T12:13:02.372Z,21.87
2018-10-07T12:15:30.660Z,22.10
2018-10-07T12:17:59.117Z,22.44
2018-10-07T12:20:27.581Z,22.70
2018-10-07T12:22:55.582Z,22.89
2018-10-07T12:25:23.632Z,23.13
2018-10-07T12:27:53.099Z,23.19
2018-10-07T12:30:21.073Z,22.34
2018-10-07T12:32:49.171Z,22.15
2018-10-07T12:35:17.234Z,22.23
2018-10-07T12:37:45.261Z,22.83
2018-10-07T12:40:13.237Z,22.60
2018-10-07T12:42:41.327Z,22.25
2018-10-07T12:45:09.282Z,22.28
2018-10-07T12:47:37.595Z,22.81
2018-10-07T12:50:05.719Z,23.15
2018-10-07T12:52:34.933Z,22.96
2018-10-07T12:55:02.977Z,23.07
2018-10-07T12:57:30.965Z,22.75
2018-10-07T12:59:58.999Z,22.80
2018-10-07T13:02:27.827Z,22.48
2018-10-07T13:04:56.007Z,22.53
2018-10-07T13:07:24.084Z,22.29
2018-10-07T13:09:52.630Z,22.71
2018-10-07T13:12:20.682Z,23.05
2018-10-07T13:14:50.514Z,23.08
2018-10-07T13:17:18.714Z,23.13
2018-10-07T13:19:47.911Z,23.40
2018-10-07T13:22:15.923Z,23.48
2018-10-07T13:24:43.883Z,23.45
2018-10-07T13:27:12.148Z,23.31
2018-10-07T13:29:40.351Z,22.88
2018-10-07T13:32:08.313Z,22.58
2018-10-07T13:34:36.359Z,22.32
2018-10-07T13:37:04.410Z,22.32
2018-10-07T13:39:32.403Z,22.44
2018-10-07T13:42:00.330Z,22.60
2018-10-07T13:44:28.356Z,22.54
2018-10-07T13:46:56.384Z,22.57
2018-10-07T13:49:24.364Z,22.56
2018-10-07T13:51:52.455Z,22.43
2018-10-07T13:54:20.516Z,22.35
2018-10-07T13:56:48.527Z,22.42
2018-10-07T13:59:16.539Z,22.41
2018-10-07T14:01:44.574Z,22.47
2018-10-07T14:04:13.644Z,22.34
2018-10-07T14:06:41.714Z,22.44
2018-10-07T14:09:10.033Z,22.69
2018-10-07T14:14:13.590Z,22.69
2018-10-07T14:16:43.146Z,19.41
2018-10-07T14:19:11.169Z,23.11
2018-10-07T14:21:40.673Z,23.13
2018-10-07T14:24:09.781Z,22.88
2018-10-07T14:26:37.842Z,22.79
2018-10-07T14:29:06.059Z,22.73
2018-10-07T14:31:35.699Z,22.65
2018-10-07T14:34:03.877Z,22.83
2018-10-07T14:36:31.960Z,23.04
2018-10-07T14:38:59.936Z,22.84
2018-10-07T14:41:28.024Z,22.62
2018-10-07T14:43:56.045Z,22.75
2018-10-07T14:46:24.036Z,22.69
2018-10-07T14:48:52.088Z,22.51
2018-10-07T14:51:20.065Z,22.56
2018-10-07T14:53:48.467Z,22.81
2018-10-07T14:56:17.275Z,22.56
2018-10-07T14:58:45.396Z,22.47
2018-10-07T15:01:13.518Z,22.42
2018-10-07T15:03:41.637Z,22.39
2018-10-07T15:06:09.807Z,22.69
2018-10-07T15:08:37.956Z,22.68
2018-10-07T15:11:05.966Z,22.62
2018-10-07T15:13:34.186Z,22.64
2018-10-07T15:16:02.209Z,22.49
2018-10-07T15:18:30.123Z,22.34
2018-10-07T15:20:58.556Z,22.34
2018-10-07T15:23:26.746Z,22.16
2018-10-07T15:25:54.894Z,22.49
2018-10-07T15:28:22.863Z,22.26
2018-10-07T15:30:51.219Z,22.46
2018-10-07T15:33:19.330Z,22.34
2018-10-07T15:35:47.283Z,19.78
2018-10-07T15:38:15.191Z,22.41
2018-10-07T15:40:43.455Z,22.29
2018-10-07T15:43:11.736Z,22.12
2018-10-07T15:45:40.646Z,22.12
2018-10-07T15:48:08.613Z,22.08
2018-10-07T15:50:37.027Z,22.00
2018-10-07T15:53:04.976Z,21.87
2018-10-07T15:55:33.460Z,21.89
2018-10-07T15:58:01.461Z,21.78
2018-10-07T16:00:30.193Z,21.72
2018-10-07T16:02:58.151Z,21.63
2018-10-07T16:05:26.038Z,21.59
2018-10-07T16:07:54.506Z,21.60
2018-10-07T16:10:25.301Z,21.44
2018-10-07T16:12:53.378Z,21.28
2018-10-07T16:15:21.373Z,21.21
2018-10-07T16:17:49.354Z,20.54
2018-10-07T16:20:17.425Z,20.19
2018-10-07T16:22:45.582Z,19.95
2018-10-07T16:25:13.490Z,19.78
2018-10-07T16:27:41.509Z,19.94
2018-10-07T16:30:09.516Z,19.62
2018-10-07T16:32:37.450Z,19.50
2018-10-07T16:35:05.477Z,19.35
2018-10-07T16:37:33.494Z,19.26
2018-10-07T16:40:01.456Z,19.26
2018-10-07T16:42:29.495Z,19.10
2018-10-07T16:44:57.494Z,19.27
2018-10-07T16:47:25.495Z,19.39
2018-10-07T16:49:53.531Z,18.81
2018-10-07T16:52:21.522Z,18.63
2018-10-07T16:54:49.765Z,18.55
2018-10-07T16:57:17.766Z,18.35
2018-10-07T16:59:45.666Z,18.30
2018-10-07T17:02:13.913Z,18.29
2018-10-07T17:04:41.980Z,18.19
2018-10-07T17:07:09.990Z,18.02
2018-10-07T17:09:38.041Z,17.97
2018-10-07T17:12:06.605Z,17.69
2018-10-07T17:14:34.675Z,17.50
2018-10-07T17:17:02.674Z,17.24
2018-10-07T17:19:30.863Z,17.13
2018-10-07T17:21:59.234Z,17.08
2018-10-07T17:24:27.252Z,17.04
2018-10-07T17:26:56.048Z,16.88
2018-10-07T17:29:24.233Z,16.69
2018-10-07T17:31:52.334Z,16.59
2018-10-07T17:34:20.373Z,16.43
2018-10-07T17:36:48.463Z,16.34
2018-10-07T17:39:16.592Z,16.25
2018-10-07T17:41:44.586Z,16.33
2018-10-07T17:44:13.588Z,16.18
2018-10-07T17:46:41.589Z,16.17
2018-10-07T17:49:09.710Z,16.63
2018-10-07T17:51:39.117Z,16.36
2018-10-07T17:54:07.187Z,16.02
2018-10-07T17:56:35.259Z,16.03
2018-10-07T17:59:03.443Z,16.07
2018-10-07T18:01:32.094Z,16.05
2018-10-07T18:04:00.105Z,15.99
2018-10-07T18:06:28.070Z,15.89
2018-10-07T18:08:56.082Z,15.96
2018-10-07T18:11:26.457Z,15.66
2018-10-07T18:13:54.464Z,15.51
2018-10-07T18:16:22.583Z,15.56
2018-10-07T18:18:50.587Z,15.76
2018-10-07T18:21:18.840Z,15.91
2018-10-07T18:23:46.882Z,15.86
2018-10-07T18:26:15.065Z,15.73
2018-10-07T18:28:43.035Z,15.67
2018-10-07T18:31:11.083Z,15.61
2018-10-07T18:33:39.082Z,15.43
2018-10-07T18:36:07.156Z,15.15
2018-10-07T18:38:35.140Z,15.27
2018-10-07T18:41:03.398Z,15.19
2018-10-07T18:43:31.423Z,15.19
2018-10-07T18:45:59.388Z,15.11
2018-10-07T18:48:27.970Z,14.86
2018-10-07T18:50:56.188Z,15.00
2018-10-07T18:53:24.196Z,14.94
2018-10-07T18:55:52.221Z,14.89
2018-10-07T18:58:20.261Z,14.92
2018-10-07T19:00:48.284Z,14.63
2018-10-07T19:03:16.235Z,14.35
2018-10-07T19:05:44.387Z,14.25
2018-10-07T19:08:12.581Z,14.49
2018-10-07T19:10:41.238Z,14.58
2018-10-07T19:13:09.188Z,14.55
2018-10-07T19:15:37.343Z,14.74
2018-10-07T19:18:05.570Z,14.54
2018-10-07T19:20:33.731Z,14.56
2018-10-07T19:23:01.732Z,14.65
2018-10-07T19:25:29.901Z,14.48
2018-10-07T19:27:57.874Z,14.43
2018-10-07T19:30:25.851Z,14.77
2018-10-07T19:32:53.869Z,14.54
2018-10-07T19:35:21.826Z,14.44
2018-10-07T19:37:50.699Z,14.53
2018-10-07T19:40:18.896Z,14.59
2018-10-07T19:42:46.984Z,14.60
2018-10-07T19:45:15.213Z,14.52
2018-10-07T19:47:43.162Z,14.49
2018-10-07T19:50:11.180Z,14.55
2018-10-07T19:52:39.356Z,14.31
2018-10-07T19:55:08.090Z,14.44
2018-10-07T19:57:36.447Z,14.20
2018-10-07T20:00:05.416Z,14.33
2018-10-07T20:02:33.312Z,14.21
2018-10-07T20:05:01.195Z,13.95
2018-10-07T20:07:29.256Z,13.90
2018-10-07T20:09:57.889Z,14.16
2018-10-07T20:12:25.964Z,14.19
2018-10-07T20:14:53.873Z,14.06
2018-10-07T20:17:21.803Z,13.99
2018-10-07T20:19:49.822Z,13.95
2018-10-07T20:22:18.268Z,14.00
2018-10-07T20:24:46.444Z,13.97
2018-10-07T20:27:14.410Z,13.72
2018-10-07T20:29:42.497Z,13.74
2018-10-07T20:32:10.707Z,13.77
2018-10-07T20:34:38.665Z,13.64
2018-10-07T20:37:06.763Z,13.52
2018-10-07T20:39:34.702Z,13.81
2018-10-07T20:42:02.613Z,13.89
2018-10-07T20:44:30.626Z,13.79
2018-10-07T20:46:58.963Z,13.70
2018-10-07T20:49:26.948Z,13.64
2018-10-07T20:51:55.057Z,13.55
2018-10-07T20:54:23.114Z,13.51
2018-10-07T20:56:51.037Z,13.61
2018-10-07T20:59:20.031Z,13.39
2018-10-07T21:01:50.144Z,13.38
2018-10-07T21:04:18.155Z,13.24
2018-10-07T21:06:46.177Z,13.30
2018-10-07T21:09:14.700Z,13.30
2018-10-07T21:11:43.158Z,13.41
2018-10-07T21:14:11.110Z,13.25
2018-10-07T21:16:39.012Z,13.14
2018-10-07T21:19:07.035Z,13.12
2018-10-07T21:21:35.072Z,13.14
2018-10-07T21:24:03.408Z,13.19
2018-10-07T21:26:31.406Z,13.17
2018-10-07T21:29:00.217Z,13.17
2018-10-07T21:31:29.354Z,13.25
2018-10-07T21:33:57.364Z,13.28
2018-10-07T21:36:25.287Z,13.26
2018-10-07T21:38:53.225Z,13.04
2018-10-07T21:41:21.229Z,13.11
2018-10-07T21:43:49.286Z,13.17
2018-10-07T21:46:17.254Z,13.02
2018-10-07T21:48:45.599Z,13.30
2018-10-07T21:51:16.114Z,13.15
2018-10-07T21:53:44.572Z,13.12
2018-10-07T21:56:13.151Z,13.01
2018-10-07T21:58:41.090Z,13.00
2018-10-07T22:01:09.042Z,13.25
2018-10-07T22:03:41.170Z,13.12
2018-10-07T22:06:09.377Z,13.23
2018-10-07T22:08:37.457Z,13.08
2018-10-07T22:11:05.946Z,13.11
2018-10-07T22:13:34.059Z,13.20
2018-10-07T22:16:01.995Z,13.16
2018-10-07T22:18:31.654Z,13.10
2018-10-07T22:20:59.718Z,13.17
2018-10-07T22:23:27.734Z,13.12
2018-10-07T22:25:55.718Z,13.02
2018-10-07T22:28:23.653Z,13.02
2018-10-07T22:30:51.685Z,12.95
2018-10-07T22:33:19.730Z,12.89
2018-10-07T22:35:47.877Z,13.00
2018-10-07T22:38:16.792Z,13.01
2018-10-07T22:40:44.838Z,13.05
2018-10-07T22:43:12.772Z,12.81
2018-10-07T22:45:40.718Z,12.81
2018-10-07T22:48:08.678Z,12.60
2018-10-07T22:50:36.682Z,12.45
2018-10-07T22:53:04.750Z,12.57
2018-10-07T22:55:32.779Z,12.56
2018-10-07T22:58:00.831Z,12.65
2018-10-07T23:00:28.883Z,12.09
2018-10-07T23:02:56.823Z,11.97
2018-10-07T23:05:24.809Z,12.06
2018-10-07T23:07:52.763Z,12.20
2018-10-07T23:10:20.848Z,12.12
2018-10-07T23:12:48.828Z,11.88
2018-10-07T23:15:16.865Z,11.88
2018-10-07T23:17:44.785Z,11.83
2018-10-07T23:20:12.951Z,12.10
2018-10-07T23:22:41.107Z,12.08
2018-10-07T23:25:09.361Z,11.91
2018-10-07T23:27:37.426Z,11.52
2018-10-07T23:30:05.493Z,11.46
2018-10-07T23:32:33.440Z,11.40
2018-10-07T23:35:01.395Z,11.45
2018-10-07T23:37:29.400Z,11.58
2018-10-07T23:39:57.424Z,11.42
2018-10-07T23:42:25.447Z,11.47
2018-10-07T23:44:53.367Z,11.26
2018-10-07T23:47:21.467Z,11.16
2018-10-07T23:49:49.545Z,11.13
2018-10-07T23:52:17.493Z,11.17
2018-10-07T23:54:45.657Z,11.07
2018-10-07T23:57:13.676Z,10.93
2018-10-07T23:59:41.702Z,10.88
